Ed's Weather Station

Ed's Weather Station
Located south of Fulton, MO
Lat. 38.75234 N
Lon. 91.96758 W
Elevation 787 ft

GR3 Radar

Current 24 Hours Yesterday Last 48 Hours Last 72 Hours Last 30 Days Yearly Rainfall Yearly Temp Trends Monthly Wind Direction Last 30 Days Temperature Solar Data
Highs and Lows Trends Sun & Moon Rise\Set Times Moon\Solar Info
Local Weather Advisories Area Forecast Discussion Hazardous Weather Outlook U.S. Severe Weather Storm Prediction Center
All Time Records Monthly Records Yearly Records
Weather Gauges MW Weather Network
Local Area Conditions Printable Weather Flyer MO River Information
About Ed's Weather Weather Station Status Weather Graphic Personal Weather Sites
Kansas City NEXRAD Radar Local/Regional Radar Satellite Images
Weather Underground Data Rain Detail Chart
NWS Forecast Details Ed's Forecast Details UV Forecast Pollen Forecast Space Weather
Member of the following organizations:





Local Links:
Callaway County Sheriff

Eds Weather Station - WU Station History
Station Historical Data
 
Daily Summary for May 24, 2018 Units:  English    Metric   Both
« Previous Day
Next Day »
Daily Weekly Monthly Yearly Custom
  Current: High: Low: Average:
Temperature: 63.7 °F TemperatureF °F 63.5 °F 64.7 °F
Dew Point: 62.5 °F DewpointF °F 62.0 °F 62.6 °F
Humidity: 96% Humidity% 88% 92%
Wind Speed: 0.0mph WindSpeedMPHmph 0.0mph 0.1mph
Wind Gust: 0.0mph WindSpeedGustMPHmph - -
WindCalm - - South
Pressure: 30.06 in PressureIn in 30.03 in -
Precipitation: 0.00 in      
Historical Graphs
 
 
Tabular Data for May 24, 2018
Time Temperature Dew Point Pressure Wind Wind Speed Wind Gust Humidity Rainfall Rate (Hourly) solar Conditions
TemperatureF °F DewpointF °F PressureIn in Calm     Humidity% HourlyPrecipIn in SolarRadiationWatts/m^2 W/m2 Conditions
00:02 69.5 °F 65.8 °F 30.04 in Calm     88% 0.00 in 0.0 W/m2 CLR
00:07 69.4 °F 65.7 °F 30.05 in Calm     88% 0.00 in 0.0 W/m2 CLR
00:12 69.2 °F 65.5 °F 30.05 in Calm     88% 0.00 in 0.0 W/m2 CLR
00:17 68.9 °F 65.2 °F 30.05 in Calm     88% 0.00 in 0.0 W/m2 CLR
00:22 68.7 °F 65.0 °F 30.05 in Calm     88% 0.00 in 0.0 W/m2 CLR
00:27 68.4 °F 65.0 °F 30.05 in Calm     89% 0.00 in 0.0 W/m2 CLR
00:32 68.2 °F 64.8 °F 30.05 in Calm     89% 0.00 in 0.0 W/m2 CLR
00:37 67.9 °F 64.9 °F 30.05 in Calm     90% 0.00 in 0.0 W/m2 CLR
00:42 67.7 °F 65.0 °F 30.05 in Calm     91% 0.00 in 0.0 W/m2 CLR
00:47 67.6 °F 64.9 °F 30.05 in Calm     91% 0.00 in 0.0 W/m2 CLR
00:52 67.4 °F 64.7 °F 30.06 in Calm     91% 0.00 in 0.0 W/m2 CLR
00:57 67.4 °F 64.7 °F 30.06 in Calm     91% 0.00 in 0.0 W/m2 CLR
01:02 67.3 °F 64.9 °F 30.06 in Calm     92% 0.00 in 0.0 W/m2 CLR
01:07 67.3 °F 64.9 °F 30.06 in Calm     92% 0.00 in 0.0 W/m2 CLR
01:12 67.2 °F 64.8 °F 30.06 in Calm     92% 0.00 in 0.0 W/m2 CLR
01:17 67.2 °F 64.8 °F 30.05 in South 1.2 mph   92% 0.00 in 0.0 W/m2 CLR
01:22 67.1 °F 64.7 °F 30.05 in Calm     92% 0.00 in 0.0 W/m2 CLR
01:27 66.9 °F 64.5 °F 30.05 in Calm     92% 0.00 in 0.0 W/m2 CLR
01:32 66.8 °F 64.4 °F 30.05 in Calm     92% 0.00 in 0.0 W/m2 CLR
01:37 66.7 °F 64.3 °F 30.05 in Calm     92% 0.00 in 0.0 W/m2 CLR
01:42 66.5 °F 64.1 °F 30.05 in Calm     92% 0.00 in 0.0 W/m2 CLR
01:47 66.3 °F 63.9 °F 30.05 in Calm     92% 0.00 in 0.0 W/m2 CLR
01:52 66.3 °F 64.2 °F 30.05 in Calm     93% 0.00 in 0.0 W/m2 CLR
01:57 66.1 °F 64.0 °F 30.05 in Calm     93% 0.00 in 0.0 W/m2 CLR
02:02 66.2 °F 64.1 °F 30.05 in Calm     93% 0.00 in 0.0 W/m2 SCT
02:07 66.1 °F 64.0 °F 30.04 in Calm     93% 0.00 in 0.0 W/m2 SCT
02:12 65.9 °F 63.8 °F 30.04 in Calm     93% 0.00 in 0.0 W/m2 SCT
02:17 65.9 °F 63.8 °F 30.04 in Calm     93% 0.00 in 0.0 W/m2 SCT
02:22 65.8 °F 63.7 °F 30.04 in Calm     93% 0.00 in 0.0 W/m2 SCT
02:27 65.6 °F 63.5 °F 30.04 in South 1.2 mph   93% 0.00 in 0.0 W/m2 SCT
02:32 65.4 °F 63.3 °F 30.04 in South 1.2 mph 1.2 mph 93% 0.00 in 0.0 W/m2 SCT
02:37 65.3 °F 63.5 °F 30.04 in Calm     94% 0.00 in 0.0 W/m2 SCT
02:42 65.3 °F 63.5 °F 30.04 in Calm     94% 0.00 in 0.0 W/m2 SCT
02:48 65.3 °F 63.5 °F 30.04 in Calm     94% 0.00 in 0.0 W/m2 SCT
02:53 65.4 °F 63.9 °F 30.04 in Calm     95% 0.00 in 0.0 W/m2 SCT
02:58 65.4 °F 63.9 °F 30.03 in Calm     95% 0.00 in 0.0 W/m2 SCT
03:03 65.4 °F 63.6 °F 30.04 in Calm     94% 0.00 in 0.0 W/m2 CLR
03:08 65.3 °F 63.5 °F 30.04 in Calm     94% 0.00 in 0.0 W/m2 CLR
03:13 65.2 °F 63.4 °F 30.04 in Calm     94% 0.00 in 0.0 W/m2 CLR
03:18 65.0 °F 63.2 °F 30.04 in Calm     94% 0.00 in 0.0 W/m2 CLR
03:23 64.8 °F 63.0 °F 30.04 in Calm     94% 0.00 in 0.0 W/m2 CLR
03:28 64.6 °F 62.8 °F 30.04 in Calm     94% 0.00 in 0.0 W/m2 CLR
03:33 64.5 °F 62.7 °F 30.04 in Calm     94% 0.00 in 0.0 W/m2 CLR
03:38 64.4 °F 62.6 °F 30.04 in Calm     94% 0.00 in 0.0 W/m2 CLR
03:43 64.4 °F 62.6 °F 30.04 in Calm     94% 0.00 in 0.0 W/m2 CLR
03:48 64.3 °F 62.5 °F 30.04 in Calm     94% 0.00 in 0.0 W/m2 CLR
03:53 64.3 °F 62.5 °F 30.04 in Calm     94% 0.00 in 0.0 W/m2 CLR
03:58 64.1 °F 62.3 °F 30.04 in Calm     94% 0.00 in 0.0 W/m2 CLR
04:03 64.0 °F 62.5 °F 30.04 in Calm     95% 0.00 in 0.0 W/m2 FEW
04:08 64.0 °F 62.2 °F 30.04 in Calm     94% 0.00 in 0.0 W/m2 FEW
04:13 63.9 °F 62.4 °F 30.05 in Calm     95% 0.00 in 0.0 W/m2 FEW
04:18 63.9 °F 62.4 °F 30.05 in Calm     95% 0.00 in 0.0 W/m2 FEW
04:23 63.8 °F 62.3 °F 30.05 in Calm     95% 0.00 in 0.0 W/m2 FEW
04:28 63.7 °F 62.2 °F 30.04 in Calm     95% 0.00 in 0.0 W/m2 FEW
04:33 63.6 °F 62.1 °F 30.05 in Calm     95% 0.00 in 0.0 W/m2 FEW
04:38 63.5 °F 62.0 °F 30.05 in Calm     95% 0.00 in 0.0 W/m2 FEW
04:43 63.6 °F 62.1 °F 30.05 in Calm     95% 0.00 in 0.0 W/m2 FEW
04:48 63.6 °F 62.1 °F 30.05 in Calm     95% 0.00 in 0.0 W/m2 FEW
04:53 63.6 °F 62.1 °F 30.06 in Calm     95% 0.00 in 0.0 W/m2 FEW
04:58 63.6 °F 62.4 °F 30.06 in Calm     96% 0.00 in 0.0 W/m2 FEW
05:03 63.6 °F 62.4 °F 30.06 in Calm     96% 0.00 in 0.0 W/m2 CLR
05:08 63.6 °F 62.4 °F 30.06 in Calm     96% 0.00 in 0.0 W/m2 CLR
05:13 63.7 °F 62.5 °F 30.06 in Calm     96% 0.00 in 0.0 W/m2 CLR
Fulton, MO, USA
Compliments of Weather Underground - 1 mb